sensor_id;sensor_type;location;lat;lon;timestamp;temperature;humidity
52415;DHT22;38340;52.964;6.086;2024-03-22T00:00:13;9.60;99.90
52415;DHT22;38340;52.964;6.086;2024-03-22T00:02:39;9.60;99.90
52415;DHT22;38340;52.964;6.086;2024-03-22T00:05:04;9.70;99.90
52415;DHT22;38340;52.964;6.086;2024-03-22T00:07:30;9.70;99.90
52415;DHT22;38340;52.964;6.086;2024-03-22T00:09:56;9.70;99.90
52415;DHT22;38340;52.964;6.086;2024-03-22T00:12:22;9.70;99.90
52415;DHT22;38340;52.964;6.086;2024-03-22T00:14:48;9.80;99.90
52415;DHT22;38340;52.964;6.086;2024-03-22T00:17:14;9.80;99.90
52415;DHT22;38340;52.964;6.086;2024-03-22T00:19:39;9.80;99.90
52415;DHT22;38340;52.964;6.086;2024-03-22T00:22:05;9.80;99.90
52415;DHT22;38340;52.964;6.086;2024-03-22T00:24:31;9.80;99.90
52415;DHT22;38340;52.964;6.086;2024-03-22T00:26:56;9.90;99.90
52415;DHT22;38340;52.964;6.086;2024-03-22T00:29:22;9.90;99.90
52415;DHT22;38340;52.964;6.086;2024-03-22T00:31:48;9.90;99.90
52415;DHT22;38340;52.964;6.086;2024-03-22T00:34:13;9.90;99.90
52415;DHT22;38340;52.964;6.086;2024-03-22T00:36:39;9.90;99.90
52415;DHT22;38340;52.964;6.086;2024-03-22T00:39:04;9.90;99.90
52415;DHT22;38340;52.964;6.086;2024-03-22T00:41:30;9.90;99.90
52415;DHT22;38340;52.964;6.086;2024-03-22T00:43:58;10.00;99.90
52415;DHT22;38340;52.964;6.086;2024-03-22T00:46:24;10.00;99.90
52415;DHT22;38340;52.964;6.086;2024-03-22T00:48:50;10.00;99.90
52415;DHT22;38340;52.964;6.086;2024-03-22T00:51:15;10.00;99.90
52415;DHT22;38340;52.964;6.086;2024-03-22T00:53:41;10.00;99.90
52415;DHT22;38340;52.964;6.086;2024-03-22T00:56:06;10.00;99.90
52415;DHT22;38340;52.964;6.086;2024-03-22T00:58:32;10.00;99.90
52415;DHT22;38340;52.964;6.086;2024-03-22T01:00:58;10.00;99.90
52415;DHT22;38340;52.964;6.086;2024-03-22T01:03:24;10.00;99.90
52415;DHT22;38340;52.964;6.086;2024-03-22T01:05:49;10.00;99.90
52415;DHT22;38340;52.964;6.086;2024-03-22T01:08:15;10.00;99.90
52415;DHT22;38340;52.964;6.086;2024-03-22T01:10:41;10.10;99.90
52415;DHT22;38340;52.964;6.086;2024-03-22T01:13:07;10.10;99.90
52415;DHT22;38340;52.964;6.086;2024-03-22T01:15:32;10.10;99.90
52415;DHT22;38340;52.964;6.086;2024-03-22T01:17:58;10.10;99.90
52415;DHT22;38340;52.964;6.086;2024-03-22T01:20:24;10.10;99.90
52415;DHT22;38340;52.964;6.086;2024-03-22T01:22:49;10.20;99.90
52415;DHT22;38340;52.964;6.086;2024-03-22T01:25:15;10.20;99.90
52415;DHT22;38340;52.964;6.086;2024-03-22T01:27:41;10.20;99.90
52415;DHT22;38340;52.964;6.086;2024-03-22T01:30:07;10.20;99.90
52415;DHT22;38340;52.964;6.086;2024-03-22T01:32:34;10.20;99.90
52415;DHT22;38340;52.964;6.086;2024-03-22T01:35:00;10.20;99.90
52415;DHT22;38340;52.964;6.086;2024-03-22T01:37:25;10.30;99.90
52415;DHT22;38340;52.964;6.086;2024-03-22T01:39:51;10.30;99.90
52415;DHT22;38340;52.964;6.086;2024-03-22T01:42:16;10.40;99.90
52415;DHT22;38340;52.964;6.086;2024-03-22T01:44:42;10.40;99.90
52415;DHT22;38340;52.964;6.086;2024-03-22T01:47:08;10.40;99.90
52415;DHT22;38340;52.964;6.086;2024-03-22T01:49:34;10.40;99.90
52415;DHT22;38340;52.964;6.086;2024-03-22T01:52:00;10.40;99.90
52415;DHT22;38340;52.964;6.086;2024-03-22T01:54:26;10.50;99.90
52415;DHT22;38340;52.964;6.086;2024-03-22T01:56:52;10.50;99.90
52415;DHT22;38340;52.964;6.086;2024-03-22T01:59:18;10.50;99.90
52415;DHT22;38340;52.964;6.086;2024-03-22T02:01:44;10.50;99.90
52415;DHT22;38340;52.964;6.086;2024-03-22T02:04:10;10.50;99.90
52415;DHT22;38340;52.964;6.086;2024-03-22T02:06:36;10.50;99.90
52415;DHT22;38340;52.964;6.086;2024-03-22T02:09:01;10.50;99.90
52415;DHT22;38340;52.964;6.086;2024-03-22T02:11:30;10.50;99.90
52415;DHT22;38340;52.964;6.086;2024-03-22T02:13:56;10.50;99.90
52415;DHT22;38340;52.964;6.086;2024-03-22T02:16:21;10.50;99.90
52415;DHT22;38340;52.964;6.086;2024-03-22T02:18:47;10.50;99.90
52415;DHT22;38340;52.964;6.086;2024-03-22T02:21:13;10.40;99.90
52415;DHT22;38340;52.964;6.086;2024-03-22T02:23:40;10.40;99.90
52415;DHT22;38340;52.964;6.086;2024-03-22T02:26:06;10.50;99.90
52415;DHT22;38340;52.964;6.086;2024-03-22T02:28:33;10.40;99.90
52415;DHT22;38340;52.964;6.086;2024-03-22T02:30:59;10.40;99.90
52415;DHT22;38340;52.964;6.086;2024-03-22T02:33:25;10.40;99.90
52415;DHT22;38340;52.964;6.086;2024-03-22T02:35:51;10.40;99.90
52415;DHT22;38340;52.964;6.086;2024-03-22T02:38:17;10.40;99.90
52415;DHT22;38340;52.964;6.086;2024-03-22T02:40:43;10.40;99.90
52415;DHT22;38340;52.964;6.086;2024-03-22T02:43:09;10.40;99.90
52415;DHT22;38340;52.964;6.086;2024-03-22T02:45:35;10.40;99.90
52415;DHT22;38340;52.964;6.086;2024-03-22T02:48:01;10.40;99.90
52415;DHT22;38340;52.964;6.086;2024-03-22T02:50:27;10.40;99.90
52415;DHT22;38340;52.964;6.086;2024-03-22T02:52:52;10.40;99.90
52415;DHT22;38340;52.964;6.086;2024-03-22T02:55:18;10.40;99.90
52415;DHT22;38340;52.964;6.086;2024-03-22T02:57:44;10.40;99.90
52415;DHT22;38340;52.964;6.086;2024-03-22T03:00:10;10.40;99.90
52415;DHT22;38340;52.964;6.086;2024-03-22T03:02:36;10.40;99.90
52415;DHT22;38340;52.964;6.086;2024-03-22T03:05:02;10.30;99.90
52415;DHT22;38340;52.964;6.086;2024-03-22T03:07:28;10.30;99.90
52415;DHT22;38340;52.964;6.086;2024-03-22T03:09:54;10.30;99.90
52415;DHT22;38340;52.964;6.086;2024-03-22T03:12:20;10.40;99.90
52415;DHT22;38340;52.964;6.086;2024-03-22T03:14:45;10.40;99.90
52415;DHT22;38340;52.964;6.086;2024-03-22T03:17:11;10.30;99.90
52415;DHT22;38340;52.964;6.086;2024-03-22T03:19:37;10.40;99.90
52415;DHT22;38340;52.964;6.086;2024-03-22T03:22:03;10.40;99.90
52415;DHT22;38340;52.964;6.086;2024-03-22T03:24:28;10.40;99.90
52415;DHT22;38340;52.964;6.086;2024-03-22T03:26:54;10.40;99.90
52415;DHT22;38340;52.964;6.086;2024-03-22T03:29:20;10.40;99.90
52415;DHT22;38340;52.964;6.086;2024-03-22T03:31:46;10.40;99.90
52415;DHT22;38340;52.964;6.086;2024-03-22T03:34:11;10.30;99.90
52415;DHT22;38340;52.964;6.086;2024-03-22T03:36:37;10.30;99.90
52415;DHT22;38340;52.964;6.086;2024-03-22T03:39:03;10.30;99.90
52415;DHT22;38340;52.964;6.086;2024-03-22T03:41:29;10.30;99.90
52415;DHT22;38340;52.964;6.086;2024-03-22T03:43:55;10.30;99.90
52415;DHT22;38340;52.964;6.086;2024-03-22T03:46:20;10.30;99.90
52415;DHT22;38340;52.964;6.086;2024-03-22T03:48:46;10.30;99.90
52415;DHT22;38340;52.964;6.086;2024-03-22T03:51:12;10.30;99.90
52415;DHT22;38340;52.964;6.086;2024-03-22T03:53:37;10.30;99.90
52415;DHT22;38340;52.964;6.086;2024-03-22T03:56:03;10.30;99.90
52415;DHT22;38340;52.964;6.086;2024-03-22T03:58:29;10.30;99.90
52415;DHT22;38340;52.964;6.086;2024-03-22T04:00:54;10.30;99.90
52415;DHT22;38340;52.964;6.086;2024-03-22T04:03:20;10.30;99.90
52415;DHT22;38340;52.964;6.086;2024-03-22T04:05:46;10.20;99.90
52415;DHT22;38340;52.964;6.086;2024-03-22T04:08:11;10.20;99.90
52415;DHT22;38340;52.964;6.086;2024-03-22T04:10:37;10.20;99.90
52415;DHT22;38340;52.964;6.086;2024-03-22T04:13:03;10.20;99.90
52415;DHT22;38340;52.964;6.086;2024-03-22T04:15:28;10.20;99.90
52415;DHT22;38340;52.964;6.086;2024-03-22T04:17:56;10.20;99.90
52415;DHT22;38340;52.964;6.086;2024-03-22T04:20:22;10.20;99.90
52415;DHT22;38340;52.964;6.086;2024-03-22T04:22:48;10.20;99.90
52415;DHT22;38340;52.964;6.086;2024-03-22T04:25:15;10.20;99.90
52415;DHT22;38340;52.964;6.086;2024-03-22T04:27:41;10.20;99.90
52415;DHT22;38340;52.964;6.086;2024-03-22T04:30:07;10.20;99.90
52415;DHT22;38340;52.964;6.086;2024-03-22T04:32:33;10.20;99.90
52415;DHT22;38340;52.964;6.086;2024-03-22T04:34:59;10.20;99.90
52415;DHT22;38340;52.964;6.086;2024-03-22T04:37:25;10.20;99.90
52415;DHT22;38340;52.964;6.086;2024-03-22T04:39:50;10.20;99.90
52415;DHT22;38340;52.964;6.086;2024-03-22T04:42:16;10.20;99.90
52415;DHT22;38340;52.964;6.086;2024-03-22T04:44:42;10.20;99.90
52415;DHT22;38340;52.964;6.086;2024-03-22T04:47:07;10.20;99.90
52415;DHT22;38340;52.964;6.086;2024-03-22T04:49:33;10.20;99.90
52415;DHT22;38340;52.964;6.086;2024-03-22T04:51:59;10.20;99.90
52415;DHT22;38340;52.964;6.086;2024-03-22T04:54:24;10.20;99.90
52415;DHT22;38340;52.964;6.086;2024-03-22T04:56:50;10.20;99.90
52415;DHT22;38340;52.964;6.086;2024-03-22T04:59:16;10.20;99.90
52415;DHT22;38340;52.964;6.086;2024-03-22T05:01:43;10.10;99.90
52415;DHT22;38340;52.964;6.086;2024-03-22T05:04:09;10.10;99.90
52415;DHT22;38340;52.964;6.086;2024-03-22T05:06:35;10.10;99.90
52415;DHT22;38340;52.964;6.086;2024-03-22T05:09:01;10.10;99.90
52415;DHT22;38340;52.964;6.086;2024-03-22T05:11:26;10.10;99.90
52415;DHT22;38340;52.964;6.086;2024-03-22T05:13:52;10.10;99.90
52415;DHT22;38340;52.964;6.086;2024-03-22T05:16:18;10.00;99.90
52415;DHT22;38340;52.964;6.086;2024-03-22T05:18:43;10.00;99.90
52415;DHT22;38340;52.964;6.086;2024-03-22T05:21:09;10.00;99.90
52415;DHT22;38340;52.964;6.086;2024-03-22T05:23:35;10.00;99.90
52415;DHT22;38340;52.964;6.086;2024-03-22T05:26:00;10.00;99.90
52415;DHT22;38340;52.964;6.086;2024-03-22T05:28:26;10.00;99.90
52415;DHT22;38340;52.964;6.086;2024-03-22T05:30:52;10.00;99.90
52415;DHT22;38340;52.964;6.086;2024-03-22T05:33:17;10.00;99.90
52415;DHT22;38340;52.964;6.086;2024-03-22T05:35:43;10.00;99.90
52415;DHT22;38340;52.964;6.086;2024-03-22T05:38:09;10.00;99.90
52415;DHT22;38340;52.964;6.086;2024-03-22T05:40:36;9.90;99.90
52415;DHT22;38340;52.964;6.086;2024-03-22T05:43:04;10.00;99.90
52415;DHT22;38340;52.964;6.086;2024-03-22T05:45:30;10.00;99.90
52415;DHT22;38340;52.964;6.086;2024-03-22T05:47:56;10.00;99.90
52415;DHT22;38340;52.964;6.086;2024-03-22T05:50:21;10.00;99.90
52415;DHT22;38340;52.964;6.086;2024-03-22T05:52:47;10.00;99.90
52415;DHT22;38340;52.964;6.086;2024-03-22T05:55:13;9.90;99.90
52415;DHT22;38340;52.964;6.086;2024-03-22T05:57:39;9.90;99.90
52415;DHT22;38340;52.964;6.086;2024-03-22T06:00:05;10.00;99.90
52415;DHT22;38340;52.964;6.086;2024-03-22T06:02:32;9.90;99.90
52415;DHT22;38340;52.964;6.086;2024-03-22T06:04:58;9.90;99.90
52415;DHT22;38340;52.964;6.086;2024-03-22T06:07:24;10.00;99.90
52415;DHT22;38340;52.964;6.086;2024-03-22T06:09:51;9.90;99.90
52415;DHT22;38340;52.964;6.086;2024-03-22T06:12:18;10.00;99.90
52415;DHT22;38340;52.964;6.086;2024-03-22T06:14:44;10.00;99.90
52415;DHT22;38340;52.964;6.086;2024-03-22T06:17:10;10.00;99.90
52415;DHT22;38340;52.964;6.086;2024-03-22T06:19:36;10.00;99.90
52415;DHT22;38340;52.964;6.086;2024-03-22T06:22:02;10.00;99.90
52415;DHT22;38340;52.964;6.086;2024-03-22T06:24:28;10.00;99.90
52415;DHT22;38340;52.964;6.086;2024-03-22T06:26:54;10.00;99.90
52415;DHT22;38340;52.964;6.086;2024-03-22T06:29:20;10.00;99.90
52415;DHT22;38340;52.964;6.086;2024-03-22T06:31:46;10.00;99.90
52415;DHT22;38340;52.964;6.086;2024-03-22T06:34:12;10.00;99.90
52415;DHT22;38340;52.964;6.086;2024-03-22T06:36:37;10.00;99.90
52415;DHT22;38340;52.964;6.086;2024-03-22T06:39:03;10.00;99.90
52415;DHT22;38340;52.964;6.086;2024-03-22T06:41:34;10.00;99.90
52415;DHT22;38340;52.964;6.086;2024-03-22T06:44:00;10.00;99.90
52415;DHT22;38340;52.964;6.086;2024-03-22T06:46:26;10.00;99.90
52415;DHT22;38340;52.964;6.086;2024-03-22T06:48:52;10.10;99.90
52415;DHT22;38340;52.964;6.086;2024-03-22T06:51:19;10.10;99.90
52415;DHT22;38340;52.964;6.086;2024-03-22T06:53:45;10.10;99.90
52415;DHT22;38340;52.964;6.086;2024-03-22T06:56:13;10.00;99.90
52415;DHT22;38340;52.964;6.086;2024-03-22T06:58:39;10.10;99.90
52415;DHT22;38340;52.964;6.086;2024-03-22T07:01:05;10.10;99.90
52415;DHT22;38340;52.964;6.086;2024-03-22T07:03:30;10.10;99.90
52415;DHT22;38340;52.964;6.086;2024-03-22T07:05:56;10.10;99.90
52415;DHT22;38340;52.964;6.086;2024-03-22T07:08:26;10.10;99.90
52415;DHT22;38340;52.964;6.086;2024-03-22T07:10:53;10.20;99.90
52415;DHT22;38340;52.964;6.086;2024-03-22T07:13:20;10.20;99.90
52415;DHT22;38340;52.964;6.086;2024-03-22T07:15:46;10.20;99.90
52415;DHT22;38340;52.964;6.086;2024-03-22T07:18:16;10.20;99.90
52415;DHT22;38340;52.964;6.086;2024-03-22T07:20:42;10.20;99.90
52415;DHT22;38340;52.964;6.086;2024-03-22T07:23:08;10.20;99.90
52415;DHT22;38340;52.964;6.086;2024-03-22T07:25:34;10.20;99.90
52415;DHT22;38340;52.964;6.086;2024-03-22T07:28:00;10.10;99.90
52415;DHT22;38340;52.964;6.086;2024-03-22T07:30:25;10.20;99.90
52415;DHT22;38340;52.964;6.086;2024-03-22T07:32:51;10.20;99.90
52415;DHT22;38340;52.964;6.086;2024-03-22T07:35:17;10.20;99.90
52415;DHT22;38340;52.964;6.086;2024-03-22T07:37:42;10.20;99.90
52415;DHT22;38340;52.964;6.086;2024-03-22T07:40:08;10.20;99.90
52415;DHT22;38340;52.964;6.086;2024-03-22T07:42:35;10.10;99.90
52415;DHT22;38340;52.964;6.086;2024-03-22T07:45:00;10.20;99.90
52415;DHT22;38340;52.964;6.086;2024-03-22T07:47:26;10.20;99.90
52415;DHT22;38340;52.964;6.086;2024-03-22T07:49:52;10.20;99.90
52415;DHT22;38340;52.964;6.086;2024-03-22T07:52:17;10.20;99.90
52415;DHT22;38340;52.964;6.086;2024-03-22T07:54:43;10.20;99.90
52415;DHT22;38340;52.964;6.086;2024-03-22T07:57:09;10.10;99.90
52415;DHT22;38340;52.964;6.086;2024-03-22T07:59:36;10.10;99.90
52415;DHT22;38340;52.964;6.086;2024-03-22T08:02:02;10.10;99.90
52415;DHT22;38340;52.964;6.086;2024-03-22T08:04:29;10.00;99.90
52415;DHT22;38340;52.964;6.086;2024-03-22T08:06:54;10.10;99.90
52415;DHT22;38340;52.964;6.086;2024-03-22T08:09:20;10.00;99.90
52415;DHT22;38340;52.964;6.086;2024-03-22T08:11:46;10.00;99.90
52415;DHT22;38340;52.964;6.086;2024-03-22T08:14:13;10.00;99.90
52415;DHT22;38340;52.964;6.086;2024-03-22T08:16:39;10.00;99.90
52415;DHT22;38340;52.964;6.086;2024-03-22T08:19:04;10.10;99.90
52415;DHT22;38340;52.964;6.086;2024-03-22T08:21:30;10.10;99.90
52415;DHT22;38340;52.964;6.086;2024-03-22T08:23:56;10.00;99.90
52415;DHT22;38340;52.964;6.086;2024-03-22T08:26:21;10.00;99.90
52415;DHT22;38340;52.964;6.086;2024-03-22T08:28:47;10.00;99.90
52415;DHT22;38340;52.964;6.086;2024-03-22T08:31:14;10.10;99.90
52415;DHT22;38340;52.964;6.086;2024-03-22T08:33:39;10.10;99.90
52415;DHT22;38340;52.964;6.086;2024-03-22T08:36:05;10.00;99.90
52415;DHT22;38340;52.964;6.086;2024-03-22T08:38:31;10.10;99.90
52415;DHT22;38340;52.964;6.086;2024-03-22T08:40:57;10.10;99.90
52415;DHT22;38340;52.964;6.086;2024-03-22T08:43:23;10.10;99.90
52415;DHT22;38340;52.964;6.086;2024-03-22T08:45:51;10.10;99.90
52415;DHT22;38340;52.964;6.086;2024-03-22T08:48:17;10.10;99.90
52415;DHT22;38340;52.964;6.086;2024-03-22T08:50:44;10.10;99.90
52415;DHT22;38340;52.964;6.086;2024-03-22T08:53:09;10.10;99.90
52415;DHT22;38340;52.964;6.086;2024-03-22T08:55:35;10.10;99.90
52415;DHT22;38340;52.964;6.086;2024-03-22T08:58:01;10.00;99.90
52415;DHT22;38340;52.964;6.086;2024-03-22T09:00:26;10.10;99.90
52415;DHT22;38340;52.964;6.086;2024-03-22T09:02:52;10.10;99.90
52415;DHT22;38340;52.964;6.086;2024-03-22T09:05:18;10.00;99.90
52415;DHT22;38340;52.964;6.086;2024-03-22T09:07:44;10.00;99.90
52415;DHT22;38340;52.964;6.086;2024-03-22T09:10:10;10.10;99.90
52415;DHT22;38340;52.964;6.086;2024-03-22T09:12:36;10.10;99.90
52415;DHT22;38340;52.964;6.086;2024-03-22T09:15:02;10.10;99.90
52415;DHT22;38340;52.964;6.086;2024-03-22T09:17:27;10.10;99.90
52415;DHT22;38340;52.964;6.086;2024-03-22T09:19:53;10.10;99.90
52415;DHT22;38340;52.964;6.086;2024-03-22T09:22:19;10.10;99.90
52415;DHT22;38340;52.964;6.086;2024-03-22T09:24:44;10.10;99.90
52415;DHT22;38340;52.964;6.086;2024-03-22T09:27:10;10.10;99.90
52415;DHT22;38340;52.964;6.086;2024-03-22T09:29:37;10.10;99.90
52415;DHT22;38340;52.964;6.086;2024-03-22T09:32:03;10.10;99.90
52415;DHT22;38340;52.964;6.086;2024-03-22T09:34:29;10.10;99.90
52415;DHT22;38340;52.964;6.086;2024-03-22T09:36:58;10.10;99.90
52415;DHT22;38340;52.964;6.086;2024-03-22T09:39:24;10.20;99.90
52415;DHT22;38340;52.964;6.086;2024-03-22T09:41:51;10.20;99.90
52415;DHT22;38340;52.964;6.086;2024-03-22T09:44:18;10.20;99.90
52415;DHT22;38340;52.964;6.086;2024-03-22T09:46:46;10.10;99.90
52415;DHT22;38340;52.964;6.086;2024-03-22T09:49:13;10.20;99.90
52415;DHT22;38340;52.964;6.086;2024-03-22T09:51:39;10.20;99.90
52415;DHT22;38340;52.964;6.086;2024-03-22T09:54:07;10.10;99.90
52415;DHT22;38340;52.964;6.086;2024-03-22T09:56:34;10.10;99.90
52415;DHT22;38340;52.964;6.086;2024-03-22T09:59:00;10.10;99.90
52415;DHT22;38340;52.964;6.086;2024-03-22T10:01:26;10.10;99.90
52415;DHT22;38340;52.964;6.086;2024-03-22T10:03:52;10.10;99.90
52415;DHT22;38340;52.964;6.086;2024-03-22T10:06:18;10.10;99.90
52415;DHT22;38340;52.964;6.086;2024-03-22T10:08:44;10.10;99.90
52415;DHT22;38340;52.964;6.086;2024-03-22T10:11:11;10.10;99.90
52415;DHT22;38340;52.964;6.086;2024-03-22T10:13:36;10.20;99.90
52415;DHT22;38340;52.964;6.086;2024-03-22T10:16:02;10.20;99.90
52415;DHT22;38340;52.964;6.086;2024-03-22T10:18:28;10.20;99.90
52415;DHT22;38340;52.964;6.086;2024-03-22T10:21:04;10.10;99.90
52415;DHT22;38340;52.964;6.086;2024-03-22T10:23:31;10.10;99.90
52415;DHT22;38340;52.964;6.086;2024-03-22T10:25:57;10.10;99.90
52415;DHT22;38340;52.964;6.086;2024-03-22T10:28:28;10.10;99.90
52415;DHT22;38340;52.964;6.086;2024-03-22T10:30:54;10.10;99.90
52415;DHT22;38340;52.964;6.086;2024-03-22T10:33:20;10.10;99.90
52415;DHT22;38340;52.964;6.086;2024-03-22T10:35:58;10.10;99.90
52415;DHT22;38340;52.964;6.086;2024-03-22T10:38:25;10.10;99.90
52415;DHT22;38340;52.964;6.086;2024-03-22T10:40:51;10.10;99.90
52415;DHT22;38340;52.964;6.086;2024-03-22T10:43:17;10.20;99.90
52415;DHT22;38340;52.964;6.086;2024-03-22T10:45:43;10.20;99.90
52415;DHT22;38340;52.964;6.086;2024-03-22T10:48:11;10.20;99.90
52415;DHT22;38340;52.964;6.086;2024-03-22T10:50:41;10.30;99.90
52415;DHT22;38340;52.964;6.086;2024-03-22T10:53:14;10.40;99.90
52415;DHT22;38340;52.964;6.086;2024-03-22T10:55:46;10.40;99.90
52415;DHT22;38340;52.964;6.086;2024-03-22T10:58:16;10.40;99.90
52415;DHT22;38340;52.964;6.086;2024-03-22T11:00:43;10.30;99.90
52415;DHT22;38340;52.964;6.086;2024-03-22T11:03:09;10.20;99.90
52415;DHT22;38340;52.964;6.086;2024-03-22T11:05:48;10.20;99.90
52415;DHT22;38340;52.964;6.086;2024-03-22T11:08:26;10.20;99.90
52415;DHT22;38340;52.964;6.086;2024-03-22T11:10:53;10.20;99.90
52415;DHT22;38340;52.964;6.086;2024-03-22T11:13:20;10.20;99.90
52415;DHT22;38340;52.964;6.086;2024-03-22T11:15:49;10.10;99.90
52415;DHT22;38340;52.964;6.086;2024-03-22T11:18:15;10.20;99.90
52415;DHT22;38340;52.964;6.086;2024-03-22T11:20:42;10.10;99.90
52415;DHT22;38340;52.964;6.086;2024-03-22T11:23:09;10.00;99.90
52415;DHT22;38340;52.964;6.086;2024-03-22T11:25:35;9.90;99.90
52415;DHT22;38340;52.964;6.086;2024-03-22T11:28:01;9.60;99.90
52415;DHT22;38340;52.964;6.086;2024-03-22T11:30:32;9.50;99.90
52415;DHT22;38340;52.964;6.086;2024-03-22T11:33:01;9.50;99.90
52415;DHT22;38340;52.964;6.086;2024-03-22T11:35:27;9.50;99.90
52415;DHT22;38340;52.964;6.086;2024-03-22T11:37:53;9.60;99.90
52415;DHT22;38340;52.964;6.086;2024-03-22T11:40:19;9.70;99.90
52415;DHT22;38340;52.964;6.086;2024-03-22T11:42:47;9.60;99.90
52415;DHT22;38340;52.964;6.086;2024-03-22T11:45:16;9.70;99.90
52415;DHT22;38340;52.964;6.086;2024-03-22T11:47:43;9.80;99.90
52415;DHT22;38340;52.964;6.086;2024-03-22T11:50:11;9.90;99.90
52415;DHT22;38340;52.964;6.086;2024-03-22T11:52:43;10.10;99.90
52415;DHT22;38340;52.964;6.086;2024-03-22T11:55:12;10.10;99.90
52415;DHT22;38340;52.964;6.086;2024-03-22T11:57:38;10.20;99.90
52415;DHT22;38340;52.964;6.086;2024-03-22T12:00:04;10.30;99.90
52415;DHT22;38340;52.964;6.086;2024-03-22T12:02:35;10.20;99.90
52415;DHT22;38340;52.964;6.086;2024-03-22T12:05:04;10.10;99.90
52415;DHT22;38340;52.964;6.086;2024-03-22T12:07:30;10.10;99.90
52415;DHT22;38340;52.964;6.086;2024-03-22T12:09:56;10.00;99.90
52415;DHT22;38340;52.964;6.086;2024-03-22T12:12:22;10.10;99.90
52415;DHT22;38340;52.964;6.086;2024-03-22T12:14:48;10.10;99.90
52415;DHT22;38340;52.964;6.086;2024-03-22T12:17:16;10.10;99.90
52415;DHT22;38340;52.964;6.086;2024-03-22T12:19:42;10.10;99.90
52415;DHT22;38340;52.964;6.086;2024-03-22T12:22:07;10.20;99.90
52415;DHT22;38340;52.964;6.086;2024-03-22T12:24:33;10.20;99.90
52415;DHT22;38340;52.964;6.086;2024-03-22T12:26:59;10.40;99.90
52415;DHT22;38340;52.964;6.086;2024-03-22T12:29:25;10.40;99.90
52415;DHT22;38340;52.964;6.086;2024-03-22T12:31:50;10.50;99.90
52415;DHT22;38340;52.964;6.086;2024-03-22T12:34:16;10.60;99.90
52415;DHT22;38340;52.964;6.086;2024-03-22T12:36:43;10.50;99.90
52415;DHT22;38340;52.964;6.086;2024-03-22T12:39:08;10.50;99.90
52415;DHT22;38340;52.964;6.086;2024-03-22T12:41:34;10.60;99.90
52415;DHT22;38340;52.964;6.086;2024-03-22T12:44:01;10.50;99.90
52415;DHT22;38340;52.964;6.086;2024-03-22T12:46:27;10.60;99.90
52415;DHT22;38340;52.964;6.086;2024-03-22T12:48:53;10.50;99.90
52415;DHT22;38340;52.964;6.086;2024-03-22T12:51:19;10.40;99.90
52415;DHT22;38340;52.964;6.086;2024-03-22T12:53:45;10.50;99.90
52415;DHT22;38340;52.964;6.086;2024-03-22T12:56:11;10.50;99.90
52415;DHT22;38340;52.964;6.086;2024-03-22T12:58:37;10.40;99.90
52415;DHT22;38340;52.964;6.086;2024-03-22T13:01:05;10.40;99.90
52415;DHT22;38340;52.964;6.086;2024-03-22T13:03:32;10.40;99.90
52415;DHT22;38340;52.964;6.086;2024-03-22T13:05:58;10.40;99.90
52415;DHT22;38340;52.964;6.086;2024-03-22T13:08:23;10.40;99.90
52415;DHT22;38340;52.964;6.086;2024-03-22T13:10:49;10.40;99.90
52415;DHT22;38340;52.964;6.086;2024-03-22T13:13:15;10.50;99.90
52415;DHT22;38340;52.964;6.086;2024-03-22T13:15:45;10.60;99.90
52415;DHT22;38340;52.964;6.086;2024-03-22T13:18:12;10.60;99.90
52415;DHT22;38340;52.964;6.086;2024-03-22T13:20:38;10.60;99.90
52415;DHT22;38340;52.964;6.086;2024-03-22T13:23:04;10.50;99.90
52415;DHT22;38340;52.964;6.086;2024-03-22T13:25:30;10.40;99.90
52415;DHT22;38340;52.964;6.086;2024-03-22T13:27:56;10.50;99.90
52415;DHT22;38340;52.964;6.086;2024-03-22T13:30:22;10.40;99.90
52415;DHT22;38340;52.964;6.086;2024-03-22T13:32:48;10.30;99.90
52415;DHT22;38340;52.964;6.086;2024-03-22T13:35:14;10.30;99.90
52415;DHT22;38340;52.964;6.086;2024-03-22T13:37:42;10.20;99.90
52415;DHT22;38340;52.964;6.086;2024-03-22T13:40:08;10.20;99.90
52415;DHT22;38340;52.964;6.086;2024-03-22T13:42:34;10.20;99.90
52415;DHT22;38340;52.964;6.086;2024-03-22T13:45:00;10.10;99.90
52415;DHT22;38340;52.964;6.086;2024-03-22T13:47:26;10.10;99.90
52415;DHT22;38340;52.964;6.086;2024-03-22T13:49:53;10.00;99.90
52415;DHT22;38340;52.964;6.086;2024-03-22T13:52:19;9.90;99.90
52415;DHT22;38340;52.964;6.086;2024-03-22T13:54:46;9.90;99.90
52415;DHT22;38340;52.964;6.086;2024-03-22T13:57:12;9.80;99.90
52415;DHT22;38340;52.964;6.086;2024-03-22T13:59:37;9.90;99.90
52415;DHT22;38340;52.964;6.086;2024-03-22T14:02:06;9.80;99.90
52415;DHT22;38340;52.964;6.086;2024-03-22T14:04:31;9.80;99.90
52415;DHT22;38340;52.964;6.086;2024-03-22T14:06:57;9.90;99.90
52415;DHT22;38340;52.964;6.086;2024-03-22T14:09:23;9.80;99.90
52415;DHT22;38340;52.964;6.086;2024-03-22T14:11:49;9.70;99.90
52415;DHT22;38340;52.964;6.086;2024-03-22T14:14:15;9.80;99.90
52415;DHT22;38340;52.964;6.086;2024-03-22T14:16:41;9.80;99.90
52415;DHT22;38340;52.964;6.086;2024-03-22T14:19:07;9.90;99.90
52415;DHT22;38340;52.964;6.086;2024-03-22T14:21:34;9.90;99.90
52415;DHT22;38340;52.964;6.086;2024-03-22T14:24:00;9.90;99.90
52415;DHT22;38340;52.964;6.086;2024-03-22T14:26:25;9.80;99.90
52415;DHT22;38340;52.964;6.086;2024-03-22T14:28:51;9.90;99.90
52415;DHT22;38340;52.964;6.086;2024-03-22T14:31:18;9.80;99.90
52415;DHT22;38340;52.964;6.086;2024-03-22T14:33:44;9.80;99.90
52415;DHT22;38340;52.964;6.086;2024-03-22T14:36:10;9.70;99.90
52415;DHT22;38340;52.964;6.086;2024-03-22T14:38:37;9.70;99.90
52415;DHT22;38340;52.964;6.086;2024-03-22T14:41:03;9.70;99.90
52415;DHT22;38340;52.964;6.086;2024-03-22T14:43:29;9.60;99.90
52415;DHT22;38340;52.964;6.086;2024-03-22T14:45:57;9.60;99.90
52415;DHT22;38340;52.964;6.086;2024-03-22T14:48:23;9.60;99.90
52415;DHT22;38340;52.964;6.086;2024-03-22T14:50:50;9.70;99.90
52415;DHT22;38340;52.964;6.086;2024-03-22T14:53:20;9.60;99.90
52415;DHT22;38340;52.964;6.086;2024-03-22T14:55:57;9.70;99.90
52415;DHT22;38340;52.964;6.086;2024-03-22T14:58:27;9.60;99.90
52415;DHT22;38340;52.964;6.086;2024-03-22T15:01:11;9.60;99.90
52415;DHT22;38340;52.964;6.086;2024-03-22T15:03:37;9.60;99.90
52415;DHT22;38340;52.964;6.086;2024-03-22T15:06:03;9.60;99.90
52415;DHT22;38340;52.964;6.086;2024-03-22T15:08:30;9.60;99.90
52415;DHT22;38340;52.964;6.086;2024-03-22T15:10:55;9.50;99.90
52415;DHT22;38340;52.964;6.086;2024-03-22T15:13:21;9.50;99.90
52415;DHT22;38340;52.964;6.086;2024-03-22T15:15:57;9.50;99.90
52415;DHT22;38340;52.964;6.086;2024-03-22T15:18:24;9.50;99.90
52415;DHT22;38340;52.964;6.086;2024-03-22T15:20:52;9.50;99.90
52415;DHT22;38340;52.964;6.086;2024-03-22T15:23:18;9.50;99.90
52415;DHT22;38340;52.964;6.086;2024-03-22T15:25:45;9.50;99.90
52415;DHT22;38340;52.964;6.086;2024-03-22T15:28:12;9.50;99.90